Londonderry, NH (03053)

10:51 PM EST on March 01, 2015 (GMT -0500)
South Londonderry | Change Station
CLOSE
Current Station
Personal Weather Station
Location: Londonderry, NH
Elevation: 223 ft
Nearby Weather Stations

Elev 223 ft 42.84 °N, 71.35 °W | Updated 1 minute ago

Snow
Snow
27.3 °F
Feels Like 27 °F
N
0.0
Wind Variable Wind from ENE
Gusts 0.0 mph

Today
High -- | Low -- °F
--% Chance of Precip.
Yesterday
High -- | Low -- °F
Precip. -- in
6:21 AM 5:34 PM
Waxing Gibbous, 89% visible
Pressure 30.22 in
Visibility 1.5 miles
Clouds Few 600 ft
Overcast 1800 ft
Windchill 27 °F
Dew Point 24 °F
Humidity 88%
Rainfall 0.09 in
Snow Depth Not available.
UV 0 out of 12
Pollen .30 out of 12
Air Quality Not available.
Flu Activity Not available.
METAR KMHT 020253Z 18005KT 1 1/2SM -SN BR FEW006 OVC018 M04/M04 A3016 RMK AO2 SLP233 P0001 60001 T10391044 58039

More Conditions Fewer Conditions

Pressure 30.22 in
Visibility 1.5 miles
Clouds Few 600 ft
Overcast 1800 ft
Windchill 27 °F
Dew Point 24 °F
Humidity 88%
Rainfall 0.09 in
Snow Depth Not available.
UV 0 out of 12
Pollen .30 out of 12
Air Quality Not available.
Flu Activity Not available.
METAR KMHT 020253Z 18005KT 1 1/2SM -SN BR FEW006 OVC018 M04/M04 A3016 RMK AO2 SLP233 P0001 60001 T10391044 58039

More Conditions Fewer Conditions

10-Day Weather Forecast

Almanac

Astronomy

Mar. 01, 2015 Rise Set
Actual Time
Civil Twilight
Nautical Twilight
Astronomical Twilight
Moon
Length of Visible Light
Length of Day
Tomorrow will be .
, % of the Moon is Illuminated

Today's Extremes

State Highs State Lows

Community

WunderPhotos

Upload Photos

1,801,719 photos uploaded!

WunderBlogs® & News

Nearby

Air Quality

  Air Quality AQ Index Pollutant
Not available.

Snow Depth

Station Depth Elevation

Earthquake Activity

City Distance Mag. Time & Date
Minimum magnitude displayed is 2.5.

Coastal Water Temperatures

Place Temperature

Nearby Weather Stations